^^

..:: Storico WU ::..




Lo storico viene creato da WUnderground con i dati che la stazione Meteomincio invia al loro server. L' aggiornamento viene fatto ogni 5 minuti circa, tuttavia possono esserci intervalli pił ampi a causa di errori, interruzioni di servizio o problemi nell' invio tramite FTP.


Storico stazione MeteoMincio
Giorno Sommario per Novembre 02, 2022 Unità:  Inglese    Metrico   Entrambi
Giorno Settimana Mese Anno
  Max: Min: Media:
Temperatura: 59 °F 51.8 °F 56.1 °F
Dew Point: 57.2 °F 51.8 °F 54.9 °F
Umidità: 97% 93% 96%
Velocità vento: 6.2mph 0mph 2.5mph
Raffica: 8.1mph - -
Direzione- - WSW
Pressione: 30.3 in 30.2 in -
Precipitazioni: 0.15 in    
 
 
Tabulato Dati per Novembre 02, 2022
Ora Temperatura Dew Point Pressione Direzione Velocità vento Raffica Umidità Intensità pioggia (oraria) Info solare Situazione
00:04 55.4 °F 53.6 °F 30.2 in West 2.5 mph 3.7 mph 95% 0 in 0.00 W/m2 unknown
00:09 55.4 °F 53.6 °F 30.2 in West 3.7 mph 5 mph 95% 0 in 0.00 W/m2 unknown
00:14 55.4 °F 53.6 °F 30.2 in West 3.7 mph 5 mph 95% 0 in 0.00 W/m2 unknown
00:19 55.4 °F 53.6 °F 30.2 in West 3.1 mph 3.7 mph 95% 0 in 0.00 W/m2 unknown
00:24 55.4 °F 53.6 °F 30.2 in West 3.1 mph 3.7 mph 95% 0 in 0.00 W/m2 unknown
00:29 55.4 °F 53.6 °F 30.2 in West 3.1 mph 5 mph 95% 0 in 0.00 W/m2 unknown
00:34 55.4 °F 53.6 °F 30.2 in West 3.1 mph 5 mph 95% 0 in 0.00 W/m2 unknown
00:39 55.4 °F 53.6 °F 30.2 in SW 3.1 mph 5 mph 95% 0 in 0.00 W/m2 unknown
00:44 55.4 °F 53.6 °F 30.2 in SW 4.3 mph 6.2 mph 95% 0 in 0.00 W/m2 unknown
00:49 55.4 °F 53.6 °F 30.2 in SW 3.7 mph 6.2 mph 95% 0 in 0.00 W/m2 unknown
00:54 53.6 °F 53.6 °F 30.2 in WSW 3.7 mph 6.2 mph 95% 0 in 0.00 W/m2 unknown
00:59 53.6 °F 53.6 °F 30.2 in West 4.3 mph 6.2 mph 95% 0 in 0.00 W/m2 unknown
01:04 53.6 °F 53.6 °F 30.2 in West 5 mph 6.2 mph 95% 0 in 0.00 W/m2 unknown
01:09 53.6 °F 53.6 °F 30.2 in WSW 4.3 mph 6.2 mph 95% 0 in 0.00 W/m2 unknown
01:14 53.6 °F 53.6 °F 30.2 in West 4.3 mph 6.2 mph 96% 0 in 0.00 W/m2 unknown
01:19 53.6 °F 53.6 °F 30.2 in West 4.3 mph 5 mph 96% 0 in 0.00 W/m2 unknown
01:24 53.6 °F 53.6 °F 30.2 in WNW 5 mph 6.2 mph 96% 0 in 0.00 W/m2 unknown
01:29 53.6 °F 53.6 °F 30.2 in WNW 5 mph 6.8 mph 96% 0 in 0.00 W/m2 unknown
01:34 53.6 °F 51.8 °F 30.2 in WNW 5 mph 6.8 mph 96% 0 in 0.00 W/m2 unknown
01:39 53.6 °F 51.8 °F 30.2 in WNW 5 mph 6.8 mph 96% 0 in 0.00 W/m2 unknown
01:44 53.6 °F 51.8 °F 30.2 in WNW 4.3 mph 6.8 mph 96% 0 in 0.00 W/m2 unknown
01:49 53.6 °F 51.8 °F 30.2 in NW 4.3 mph 6.2 mph 96% 0 in 0.00 W/m2 unknown
01:54 53.6 °F 51.8 °F 30.2 in WNW 4.3 mph 6.2 mph 96% 0 in 0.00 W/m2 unknown
01:59 53.6 °F 51.8 °F 30.2 in WNW 3.1 mph 6.2 mph 96% 0 in 0.00 W/m2 unknown
02:04 53.6 °F 51.8 °F 30.2 in WNW 3.1 mph 5 mph 96% 0 in 0.00 W/m2 unknown
02:09 53.6 °F 51.8 °F 30.2 in WNW 3.1 mph 3.7 mph 96% 0 in 0.00 W/m2 unknown
02:14 53.6 °F 51.8 °F 30.2 in WNW 3.1 mph 3.7 mph 96% 0 in 0.00 W/m2 unknown
02:19 53.6 °F 51.8 °F 30.2 in WNW 3.1 mph 3.7 mph 96% 0 in 0.00 W/m2 unknown
02:24 53.6 °F 51.8 °F 30.2 in West 1.9 mph 3.1 mph 96% 0 in 0.00 W/m2 unknown
02:29 53.6 °F 51.8 °F 30.2 in SW 1.2 mph 2.5 mph 96% 0 in 0.00 W/m2 unknown
02:34 53.6 °F 51.8 °F 30.2 in West 1.9 mph 2.5 mph 96% 0 in 0.00 W/m2 unknown
02:39 53.6 °F 51.8 °F 30.2 in WSW 1.9 mph 3.7 mph 96% 0 in 0.00 W/m2 unknown
02:44 53.6 °F 53.6 °F 30.2 in SW 1.9 mph 3.1 mph 96% 0 in 0.00 W/m2 unknown
02:49 53.6 °F 53.6 °F 30.2 in SW 2.5 mph 3.7 mph 96% 0 in 0.00 W/m2 unknown
02:54 53.6 °F 53.6 °F 30.2 in WSW 3.7 mph 3.7 mph 96% 0 in 0.00 W/m2 unknown
02:59 53.6 °F 53.6 °F 30.2 in West 3.7 mph 3.7 mph 96% 0 in 0.00 W/m2 unknown
03:04 53.6 °F 53.6 °F 30.2 in West 3.1 mph 3.7 mph 96% 0 in 0.00 W/m2 unknown
03:09 53.6 °F 53.6 °F 30.2 in WNW 3.1 mph 3.7 mph 96% 0 in 0.00 W/m2 unknown
03:14 53.6 °F 53.6 °F 30.2 in West 2.5 mph 3.7 mph 96% 0 in 0.00 W/m2 unknown
03:19 53.6 °F 53.6 °F 30.2 in West 3.7 mph 5 mph 96% 0 in 0.00 W/m2 unknown
03:24 53.6 °F 53.6 °F 30.2 in West 3.1 mph 5 mph 96% 0 in 0.00 W/m2 unknown
03:29 53.6 °F 53.6 °F 30.2 in West 3.7 mph 5 mph 96% 0 in 0.00 W/m2 unknown
03:34 53.6 °F 53.6 °F 30.2 in West 5 mph 6.2 mph 96% 0 in 0.00 W/m2 unknown
03:39 53.6 °F 53.6 °F 30.2 in West 5 mph 6.2 mph 96% 0 in 0.00 W/m2 unknown
03:44 53.6 °F 53.6 °F 30.2 in West 5 mph 8.1 mph 96% 0 in 0.00 W/m2 unknown
03:49 53.6 °F 53.6 °F 30.2 in West 5 mph 8.1 mph 96% 0 in 0.00 W/m2 unknown
03:54 53.6 °F 53.6 °F 30.2 in West 3.7 mph 6.2 mph 96% 0 in 0.00 W/m2 unknown
03:59 53.6 °F 51.8 °F 30.2 in WSW 3.1 mph 3.7 mph 96% 0 in 0.00 W/m2 unknown
04:04 53.6 °F 51.8 °F 30.2 in SW 4.3 mph 6.2 mph 96% 0 in 0.00 W/m2 unknown
04:09 53.6 °F 51.8 °F 30.2 in WSW 5 mph 6.2 mph 96% 0 in 0.00 W/m2 unknown
04:14 53.6 °F 51.8 °F 30.2 in West 3.1 mph 5 mph 96% 0 in 0.00 W/m2 unknown
04:19 53.6 °F 51.8 °F 30.2 in West 5 mph 6.2 mph 96% 0 in 0.00 W/m2 unknown
04:24 53.6 °F 51.8 °F 30.2 in WSW 5 mph 6.8 mph 96% 0 in 0.00 W/m2 unknown
04:29 53.6 °F 51.8 °F 30.2 in West 5 mph 6.8 mph 96% 0 in 0.00 W/m2 unknown
04:34 53.6 °F 51.8 °F 30.2 in West 5.6 mph 6.8 mph 97% 0 in 0.00 W/m2 unknown
04:39 53.6 °F 51.8 °F 30.2 in West 5 mph 6.8 mph 97% 0 in 0.00 W/m2 unknown
04:44 53.6 °F 51.8 °F 30.2 in West 4.3 mph 6.8 mph 97% 0 in 0.00 W/m2 unknown
04:49 53.6 °F 51.8 °F 30.2 in West 5 mph 8.1 mph 97% 0 in 0.00 W/m2 unknown
04:54 53.6 °F 51.8 °F 30.2 in West 5.6 mph 8.1 mph 97% 0 in 0.00 W/m2 unknown
04:59 51.8 °F 51.8 °F 30.2 in West 5.6 mph 8.1 mph 96% 0 in 0.00 W/m2 unknown
05:04 51.8 °F 51.8 °F 30.2 in WNW 5 mph 6.8 mph 96% 0 in 0.00 W/m2 unknown
05:09 51.8 °F 51.8 °F 30.2 in West 4.3 mph 6.2 mph 97% 0 in 0.00 W/m2 unknown
05:14 53.6 °F 51.8 °F 30.2 in WNW 5.6 mph 6.8 mph 97% 0 in 0.00 W/m2 unknown
05:19 53.6 °F 51.8 °F 30.2 in WNW 5 mph 6.8 mph 97% 0 in 0.00 W/m2 unknown
05:24 53.6 °F 51.8 °F 30.2 in West 4.3 mph 6.8 mph 97% 0 in 0.00 W/m2 unknown
05:29 53.6 °F 51.8 °F 30.2 in West 3.7 mph 5 mph 97% 0 in 0.00 W/m2 unknown
05:34 53.6 °F 51.8 °F 30.2 in WNW 4.3 mph 5 mph 97% 0 in 0.00 W/m2 unknown
05:39 53.6 °F 51.8 °F 30.2 in West 3.1 mph 5 mph 97% 0 in 0.00 W/m2 unknown
05:44 53.6 °F 51.8 °F 30.2 in West 5 mph 6.2 mph 97% 0 in 0.00 W/m2 unknown
05:49 53.6 °F 51.8 °F 30.2 in West 5 mph 6.8 mph 97% 0 in 0.00 W/m2 unknown
05:54 53.6 °F 51.8 °F 30.2 in West 5 mph 6.8 mph 97% 0 in 0.00 W/m2 unknown
05:59 53.6 °F 51.8 °F 30.2 in West 5 mph 6.8 mph 97% 0 in 0.00 W/m2 unknown
06:04 53.6 °F 51.8 °F 30.2 in West 3.7 mph 6.2 mph 97% 0 in 0.00 W/m2 unknown
06:09 53.6 °F 51.8 °F 30.2 in WNW 4.3 mph 6.2 mph 97% 0 in 0.00 W/m2 unknown
06:14 53.6 °F 51.8 °F 30.2 in WNW 5.6 mph 8.1 mph 97% 0 in 0.00 W/m2 unknown
06:19 53.6 °F 51.8 °F 30.2 in WNW 6.2 mph 8.1 mph 97% 0 in 0.00 W/m2 unknown
06:24 53.6 °F 51.8 °F 30.2 in WNW 3.1 mph 6.2 mph 97% 0 in 0.00 W/m2 unknown
06:29 53.6 °F 51.8 °F 30.2 in West 2.5 mph 5 mph 97% 0 in 0.00 W/m2 unknown
06:34 53.6 °F 51.8 °F 30.2 in West 3.1 mph 3.7 mph 97% 0 in 0.00 W/m2 unknown
06:39 53.6 °F 51.8 °F 30.2 in West 2.5 mph 3.7 mph 97% 0 in 0.00 W/m2 unknown
06:44 53.6 °F 51.8 °F 30.2 in WNW 3.7 mph 5 mph 97% 0 in 0.00 W/m2 unknown
06:49 53.6 °F 51.8 °F 30.2 in WNW 2.5 mph 5 mph 97% 0 in 0.00 W/m2 unknown
06:54 53.6 °F 51.8 °F 30.2 in West 3.1 mph 3.7 mph 97% 0 in 0.00 W/m2 unknown
06:59 53.6 °F 51.8 °F 30.2 in West 2.5 mph 3.7 mph 97% 0 in 0.00 W/m2 unknown
07:04 53.6 °F 51.8 °F 30.2 in West 3.7 mph 5 mph 97% 0 in 0.00 W/m2 unknown
07:09 53.6 °F 51.8 °F 30.2 in WSW 3.1 mph 3.7 mph 97% 0 in 5.00 W/m2 unknown
07:14 53.6 °F 51.8 °F 30.2 in WSW 2.5 mph 3.7 mph 97% 0 in 7.00 W/m2 unknown
07:19 53.6 °F 51.8 °F 30.2 in West 3.1 mph 3.7 mph 97% 0 in 11.00 W/m2 unknown
07:24 53.6 °F 51.8 °F 30.2 in West 3.1 mph 3.7 mph 97% 0 in 19.00 W/m2 unknown
07:29 53.6 °F 51.8 °F 30.2 in West 2.5 mph 3.7 mph 97% 0 in 28.00 W/m2 unknown
07:34 53.6 °F 51.8 °F 30.2 in WNW 2.5 mph 3.7 mph 97% 0 in 28.00 W/m2 unknown
07:39 53.6 °F 53.6 °F 30.2 in West 2.5 mph 3.7 mph 97% 0 in 28.00 W/m2 unknown
07:44 53.6 °F 53.6 °F 30.2 in West 3.7 mph 3.7 mph 97% 0 in 26.00 W/m2 unknown
07:49 53.6 °F 53.6 °F 30.2 in WNW 3.7 mph 5 mph 97% 0 in 67.00 W/m2 unknown
07:54 53.6 °F 53.6 °F 30.3 in WNW 3.7 mph 5 mph 97% 0 in 67.00 W/m2 unknown
07:59 53.6 °F 53.6 °F 30.3 in West 2.5 mph 5 mph 97% 0 in 79.00 W/m2 unknown
08:04 53.6 °F 53.6 °F 30.3 in West 3.1 mph 3.7 mph 97% 0 in 93.00 W/m2 unknown
08:09 53.6 °F 53.6 °F 30.3 in West 3.7 mph 5 mph 97% 0 in 60.00 W/m2 unknown
08:14 53.6 °F 53.6 °F 30.3 in West 3.1 mph 5 mph 97% 0 in 42.00 W/m2 unknown
08:19 53.6 °F 53.6 °F 30.3 in West 3.7 mph 5 mph 97% 0 in 26.00 W/m2 unknown
08:24 53.6 °F 53.6 °F 30.3 in WNW 2.5 mph 5 mph 97% 0 in 69.00 W/m2 unknown
08:29 53.6 °F 53.6 °F 30.3 in WNW 4.3 mph 6.2 mph 97% 0 in 79.00 W/m2 unknown
08:34 53.6 °F 53.6 °F 30.3 in West 5 mph 6.2 mph 97% 0 in 84.00 W/m2 unknown
08:39 55.4 °F 53.6 °F 30.3 in West 3.1 mph 4.3 mph 97% 0 in 105.00 W/m2 unknown
08:44 55.4 °F 53.6 °F 30.3 in WNW 3.1 mph 3.7 mph 97% 0 in 121.00 W/m2 unknown
08:49 55.4 °F 53.6 °F 30.3 in WNW 3.7 mph 5 mph 97% 0 in 121.00 W/m2 unknown
08:54 55.4 °F 53.6 °F 30.3 in West 3.1 mph 5 mph 97% 0 in 144.00 W/m2 unknown
08:59 55.4 °F 53.6 °F 30.3 in West 3.1 mph 5 mph 97% 0 in 113.00 W/m2 unknown
09:04 55.4 °F 53.6 °F 30.3 in West 2.5 mph 3.7 mph 97% 0 in 77.00 W/m2 unknown
09:09 55.4 °F 53.6 °F 30.3 in WNW 3.7 mph 6.2 mph 97% 0 in 76.00 W/m2 unknown
09:14 55.4 °F 53.6 °F 30.3 in WNW 4.3 mph 6.2 mph 97% 0 in 62.00 W/m2 unknown
09:19 55.4 °F 53.6 °F 30.3 in West 5.6 mph 6.2 mph 97% 0 in 47.00 W/m2 unknown
09:24 55.4 °F 53.6 °F 30.3 in West 5 mph 6.2 mph 97% 0 in 35.00 W/m2 unknown
09:29 55.4 °F 53.6 °F 30.3 in NW 3.7 mph 6.2 mph 97% 0 in 35.00 W/m2 unknown
09:34 55.4 °F 53.6 °F 30.3 in NW 3.7 mph 6.2 mph 97% 0 in 33.00 W/m2 unknown
09:39 55.4 °F 53.6 °F 30.3 in NW 4.3 mph 6.2 mph 97% 0 in 60.00 W/m2 unknown
09:44 55.4 °F 53.6 °F 30.3 in WNW 2.5 mph 3.7 mph 97% 0 in 76.00 W/m2 unknown
09:49 55.4 °F 53.6 °F 30.3 in SW 2.5 mph 3.7 mph 97% 0 in 86.00 W/m2 unknown
09:54 55.4 °F 53.6 °F 30.3 in West 1.9 mph 3.1 mph 97% 0 in 93.00 W/m2 unknown
09:59 55.4 °F 53.6 °F 30.2 in West 2.5 mph 3.7 mph 97% 0 in 93.00 W/m2 unknown
10:04 55.4 °F 55.4 °F 30.2 in WNW 1.9 mph 3.7 mph 97% 0 in 91.00 W/m2 unknown
10:09 55.4 °F 55.4 °F 30.2 in West 1.9 mph 3.7 mph 97% 0 in 127.00 W/m2 unknown
10:14 55.4 °F 55.4 °F 30.2 in WNW 3.1 mph 3.7 mph 97% 0 in 127.00 W/m2 unknown
10:19 55.4 °F 55.4 °F 30.3 in West 3.1 mph 3.7 mph 97% 0 in 90.00 W/m2 unknown
10:24 55.4 °F 55.4 °F 30.3 in WSW 3.1 mph 3.7 mph 96% 0 in 62.00 W/m2 unknown
10:29 55.4 °F 55.4 °F 30.3 in WSW 2.5 mph 3.7 mph 96% 0 in 62.00 W/m2 unknown
10:34 55.4 °F 55.4 °F 30.3 in WSW 3.1 mph 5 mph 96% 0 in 63.00 W/m2 unknown
10:39 55.4 °F 55.4 °F 30.3 in WSW 3.7 mph 5 mph 96% 0 in 58.00 W/m2 unknown
10:44 57.2 °F 55.4 °F 30.3 in WSW 3.1 mph 5 mph 96% 0 in 77.00 W/m2 unknown
10:49 57.2 °F 55.4 °F 30.3 in SW 3.1 mph 5 mph 96% 0 in 72.00 W/m2 unknown
10:54 57.2 °F 55.4 °F 30.3 in WSW 3.7 mph 5 mph 96% 0 in 113.00 W/m2 unknown
10:59 57.2 °F 55.4 °F 30.3 in SW 3.1 mph 6.2 mph 96% 0 in 121.00 W/m2 unknown
11:04 57.2 °F 55.4 °F 30.3 in WSW 5 mph 6.2 mph 96% 0 in 97.00 W/m2 unknown
11:09 57.2 °F 55.4 °F 30.3 in WSW 3.7 mph 6.2 mph 96% 0 in 100.00 W/m2 unknown
11:14 57.2 °F 55.4 °F 30.3 in WSW 3.7 mph 5 mph 96% 0 in 116.00 W/m2 unknown
11:19 57.2 °F 55.4 °F 30.3 in WSW 3.7 mph 5 mph 95% 0 in 123.00 W/m2 unknown
11:24 57.2 °F 55.4 °F 30.2 in WSW 4.3 mph 6.2 mph 95% 0 in 111.00 W/m2 unknown
11:29 57.2 °F 55.4 °F 30.2 in WSW 5 mph 6.2 mph 95% 0 in 107.00 W/m2 unknown
11:34 57.2 °F 57.2 °F 30.2 in SW 5 mph 6.2 mph 95% 0 in 111.00 W/m2 unknown
11:39 57.2 °F 57.2 °F 30.2 in WSW 3.1 mph 6.2 mph 95% 0 in 100.00 W/m2 unknown
11:44 57.2 °F 57.2 °F 30.2 in West 3.1 mph 3.7 mph 95% 0 in 109.00 W/m2 unknown
11:49 59 °F 57.2 °F 30.2 in WSW 3.7 mph 5 mph 95% 0 in 109.00 W/m2 unknown
11:54 59 °F 57.2 °F 30.2 in West 5 mph 6.8 mph 94% 0 in 100.00 W/m2 unknown
11:59 59 °F 57.2 °F 30.2 in WNW 3.7 mph 6.8 mph 94% 0 in 93.00 W/m2 unknown
12:04 59 °F 57.2 °F 30.2 in WNW 5 mph 6.2 mph 94% 0 in 91.00 W/m2 unknown
12:09 59 °F 57.2 °F 30.2 in WNW 5 mph 6.8 mph 94% 0 in 74.00 W/m2 unknown
12:14 59 °F 57.2 °F 30.2 in WNW 5 mph 6.8 mph 94% 0 in 58.00 W/m2 unknown
12:19 59 °F 57.2 °F 30.2 in West 5 mph 6.8 mph 94% 0 in 60.00 W/m2 unknown
12:24 59 °F 57.2 °F 30.2 in NW 3.1 mph 6.2 mph 94% 0.01 in 76.00 W/m2 unknown
12:29 59 °F 57.2 °F 30.2 in West 3.7 mph 3.7 mph 94% 0.01 in 72.00 W/m2 unknown
12:34 59 °F 57.2 °F 30.2 in WSW 3.1 mph 3.7 mph 93% 0.01 in 42.00 W/m2 unknown
12:39 59 °F 57.2 °F 30.2 in SW 1.9 mph 3.7 mph 93% 0.01 in 35.00 W/m2 unknown
12:44 59 °F 57.2 °F 30.2 in WNW 3.1 mph 3.7 mph 94% 0.01 in 32.00 W/m2 unknown
12:49 59 °F 57.2 °F 30.2 in West 3.1 mph 3.7 mph 93% 0.01 in 26.00 W/m2 unknown
12:54 59 °F 57.2 °F 30.2 in SW 3.1 mph 3.7 mph 93% 0.01 in 42.00 W/m2 unknown
12:59 59 °F 55.4 °F 30.2 in SW 3.1 mph 3.7 mph 93% 0.02 in 44.00 W/m2 unknown
13:04 59 °F 55.4 °F 30.2 in WSW 2.5 mph 3.7 mph 93% 0.03 in 39.00 W/m2 unknown
13:09 59 °F 55.4 °F 30.2 in SW 1.9 mph 3.7 mph 93% 0.03 in 37.00 W/m2 unknown
13:14 59 °F 57.2 °F 30.2 in Calm   1.9 mph 94% 0.04 in 40.00 W/m2 unknown
13:19 59 °F 57.2 °F 30.2 in Calm   1.2 mph 94% 0.06 in 49.00 W/m2 unknown
13:24 59 °F 57.2 °F 30.2 in Calm   1.2 mph 94% 0.06 in 58.00 W/m2 unknown
13:29 59 °F 57.2 °F 30.2 in Calm     94% 0.06 in 62.00 W/m2 unknown
13:34 59 °F 57.2 °F 30.2 in ENE 1.9 mph 3.7 mph 94% 0.06 in 56.00 W/m2 unknown
13:39 59 °F 57.2 °F 30.2 in ENE 1.2 mph 3.1 mph 95% 0.06 in 42.00 W/m2 unknown
13:44 59 °F 57.2 °F 30.2 in South 2.5 mph 3.7 mph 95% 0.06 in 28.00 W/m2 unknown
13:49 59 °F 57.2 °F 30.2 in South 4.3 mph 6.2 mph 95% 0.06 in 21.00 W/m2 unknown
13:54 59 °F 57.2 °F 30.2 in SSW 5 mph 6.2 mph 95% 0.06 in 16.00 W/m2 unknown
13:59 59 °F 57.2 °F 30.2 in SSW 3.1 mph 5 mph 95% 0.06 in 30.00 W/m2 unknown
14:04 59 °F 57.2 °F 30.2 in SSW 0.6 mph 3.1 mph 95% 0.06 in 30.00 W/m2 unknown
14:09 59 °F 57.2 °F 30.2 in WSW 2.5 mph 3.7 mph 95% 0.07 in 37.00 W/m2 unknown
14:14 59 °F 57.2 °F 30.2 in SW 3.1 mph 3.7 mph 95% 0.06 in 40.00 W/m2 unknown
14:19 59 °F 57.2 °F 30.2 in SW 2.5 mph 3.7 mph 95% 0.06 in 35.00 W/m2 unknown
14:24 57.2 °F 57.2 °F 30.2 in South 0.6 mph 3.1 mph 95% 0.06 in 37.00 W/m2 unknown
14:29 57.2 °F 57.2 °F 30.2 in SSE 1.2 mph 2.5 mph 95% 0.07 in 46.00 W/m2 unknown
14:34 57.2 °F 57.2 °F 30.2 in ESE 1.2 mph 2.5 mph 95% 0.08 in 47.00 W/m2 unknown
14:39 59 °F 57.2 °F 30.2 in NE 1.2 mph 2.5 mph 95% 0.08 in 49.00 W/m2 unknown
14:44 59 °F 57.2 °F 30.2 in NE 1.2 mph 2.5 mph 95% 0.08 in 42.00 W/m2 unknown
14:49 59 °F 57.2 °F 30.2 in NE 1.2 mph 2.5 mph 95% 0.08 in 28.00 W/m2 unknown
14:54 59 °F 57.2 °F 30.2 in NNE 1.2 mph 2.5 mph 95% 0.08 in 23.00 W/m2 unknown
14:59 59 °F 57.2 °F 30.2 in West 1.9 mph 3.7 mph 95% 0.08 in 21.00 W/m2 unknown
15:04 59 °F 57.2 °F 30.2 in West 1.9 mph 3.7 mph 95% 0.08 in 25.00 W/m2 unknown
15:09 59 °F 57.2 °F 30.2 in Calm   3.1 mph 95% 0.06 in 25.00 W/m2 unknown
15:14 59 °F 57.2 °F 30.2 in Calm     96% 0.06 in 21.00 W/m2 unknown
15:19 59 °F 57.2 °F 30.2 in Calm     96% 0.05 in 26.00 W/m2 unknown
15:24 59 °F 57.2 °F 30.2 in Calm     96% 0.04 in 26.00 W/m2 unknown
15:29 59 °F 57.2 °F 30.2 in East 2.5 mph 5 mph 96% 0.03 in 23.00 W/m2 unknown
15:34 59 °F 57.2 °F 30.2 in East 2.5 mph 5 mph 96% 0.02 in 19.00 W/m2 unknown
15:39 59 °F 57.2 °F 30.2 in ESE 1.2 mph 5 mph 96% 0 in 21.00 W/m2 unknown
15:44 59 °F 57.2 °F 30.2 in SE 1.2 mph 2.5 mph 96% 0 in 21.00 W/m2 unknown
15:49 59 °F 57.2 °F 30.2 in ESE 3.1 mph 5 mph 96% 0 in 25.00 W/m2 unknown
15:54 59 °F 57.2 °F 30.2 in ESE 4.3 mph 6.2 mph 96% 0 in 25.00 W/m2 unknown
15:59 57.2 °F 57.2 °F 30.2 in SSE 3.1 mph 5 mph 96% 0 in 23.00 W/m2 unknown
16:04 59 °F 57.2 °F 30.2 in SSW 3.1 mph 5 mph 96% 0 in 19.00 W/m2 unknown
16:09 59 °F 57.2 °F 30.2 in SSW 2.5 mph 3.7 mph 96% 0 in 23.00 W/m2 unknown
16:14 59 °F 57.2 °F 30.2 in Calm   1.9 mph 96% 0 in 26.00 W/m2 unknown
16:19 59 °F 57.2 °F 30.2 in SSW 0.6 mph 1.2 mph 96% 0 in 26.00 W/m2 unknown
16:24 59 °F 57.2 °F 30.2 in WSW 2.5 mph 3.7 mph 96% 0 in 21.00 W/m2 unknown
16:29 59 °F 57.2 °F 30.2 in WSW 2.5 mph 3.7 mph 96% 0 in 12.00 W/m2 unknown
16:34 59 °F 57.2 °F 30.2 in West 1.9 mph 3.7 mph 96% 0 in 7.00 W/m2 unknown
16:39 59 °F 57.2 °F 30.2 in WSW 1.2 mph 3.1 mph 96% 0 in 5.00 W/m2 unknown
16:44 57.2 °F 57.2 °F 30.2 in West 1.9 mph 3.7 mph 96% 0 in 5.00 W/m2 unknown
16:49 59 °F 57.2 °F 30.2 in West 2.5 mph 3.7 mph 96% 0 in 0.00 W/m2 unknown
16:54 59 °F 57.2 °F 30.2 in West 1.2 mph 3.1 mph 96% 0 in 0.00 W/m2 unknown
16:59 59 °F 57.2 °F 30.2 in West 1.2 mph 2.5 mph 96% 0 in 0.00 W/m2 unknown
17:04 59 °F 57.2 °F 30.2 in SW 2.5 mph 3.7 mph 96% 0 in 0.00 W/m2 unknown
17:09 59 °F 57.2 °F 30.2 in SW 2.5 mph 3.7 mph 96% 0 in 0.00 W/m2 unknown
17:14 59 °F 57.2 °F 30.2 in SW 1.2 mph 3.1 mph 96% 0 in 0.00 W/m2 unknown
17:19 57.2 °F 57.2 °F 30.2 in SW 0.6 mph 1.9 mph 96% 0 in 0.00 W/m2 unknown
17:24 57.2 °F 57.2 °F 30.2 in SW 0.6 mph 1.2 mph 96% 0 in 0.00 W/m2 unknown
17:29 57.2 °F 57.2 °F 30.2 in SW 0.6 mph 1.2 mph 96% 0 in 0.00 W/m2 unknown
17:34 57.2 °F 57.2 °F 30.2 in East 3.1 mph 3.7 mph 96% 0 in 0.00 W/m2 unknown
17:39 57.2 °F 57.2 °F 30.2 in ENE 2.5 mph 3.7 mph 96% 0 in 0.00 W/m2 unknown
17:44 57.2 °F 57.2 °F 30.2 in East 0.6 mph 3.1 mph 96% 0 in 0.00 W/m2 unknown
17:49 57.2 °F 57.2 °F 30.2 in SSW 1.9 mph 3.7 mph 96% 0 in 0.00 W/m2 unknown
17:54 57.2 °F 57.2 °F 30.2 in SW 2.5 mph 3.7 mph 96% 0 in 0.00 W/m2 unknown
17:59 57.2 °F 57.2 °F 30.2 in SW 2.5 mph 3.7 mph 96% 0 in 0.00 W/m2 unknown
18:04 57.2 °F 57.2 °F 30.2 in WSW 1.2 mph 3.1 mph 96% 0 in 0.00 W/m2 unknown
18:09 57.2 °F 57.2 °F 30.2 in WSW 0.6 mph 1.2 mph 96% 0 in 0.00 W/m2 unknown
18:14 57.2 °F 57.2 °F 30.2 in West 1.2 mph 2.5 mph 96% 0 in 0.00 W/m2 unknown
18:19 57.2 °F 57.2 °F 30.2 in West 1.2 mph 2.5 mph 96% 0 in 0.00 W/m2 unknown
18:24 57.2 °F 57.2 °F 30.2 in West 1.2 mph 2.5 mph 96% 0 in 0.00 W/m2 unknown
18:29 57.2 °F 57.2 °F 30.2 in West 0.6 mph 1.9 mph 96% 0 in 0.00 W/m2 unknown
18:34 57.2 °F 57.2 °F 30.2 in West 1.2 mph 1.2 mph 96% 0 in 0.00 W/m2 unknown
18:39 57.2 °F 57.2 °F 30.2 in West 0.6 mph 2.5 mph 96% 0 in 0.00 W/m2 unknown
18:44 57.2 °F 57.2 °F 30.2 in West 0.6 mph 1.2 mph 96% 0 in 0.00 W/m2 unknown
18:49 57.2 °F 57.2 °F 30.2 in Calm   1.2 mph 96% 0 in 0.00 W/m2 unknown
18:54 57.2 °F 57.2 °F 30.2 in Calm     96% 0 in 0.00 W/m2 unknown
18:59 57.2 °F 57.2 °F 30.2 in Calm     96% 0 in 0.00 W/m2 unknown
19:04 57.2 °F 57.2 °F 30.2 in Calm     96% 0 in 0.00 W/m2 unknown
19:09 57.2 °F 57.2 °F 30.2 in Calm     96% 0 in 0.00 W/m2 unknown
19:14 57.2 °F 57.2 °F 30.2 in Calm     96% 0 in 0.00 W/m2 unknown
19:19 57.2 °F 55.4 °F 30.2 in Calm     96% 0 in 0.00 W/m2 unknown
19:24 57.2 °F 55.4 °F 30.2 in Calm   1.2 mph 96% 0 in 0.00 W/m2 unknown
19:29 57.2 °F 57.2 °F 30.2 in SW 1.9 mph 3.7 mph 96% 0.01 in 0.00 W/m2 unknown
19:34 57.2 °F 57.2 °F 30.2 in SSW 1.2 mph 3.1 mph 96% 0.01 in 0.00 W/m2 unknown
19:39 57.2 °F 57.2 °F 30.2 in Calm     96% 0.01 in 0.00 W/m2 unknown
19:44 57.2 °F 57.2 °F 30.2 in Calm     96% 0.01 in 0.00 W/m2 unknown
19:49 57.2 °F 57.2 °F 30.2 in Calm     96% 0.01 in 0.00 W/m2 unknown
19:54 57.2 °F 57.2 °F 30.2 in Calm     96% 0.01 in 0.00 W/m2 unknown
19:59 57.2 °F 57.2 °F 30.2 in Calm     96% 0.01 in 0.00 W/m2 unknown
20:04 57.2 °F 57.2 °F 30.2 in Calm     96% 0.01 in 0.00 W/m2 unknown
20:09 57.2 °F 57.2 °F 30.2 in Calm     96% 0.01 in 0.00 W/m2 unknown
20:14 57.2 °F 57.2 °F 30.2 in Calm     96% 0.01 in 0.00 W/m2 unknown
20:19 57.2 °F 57.2 °F 30.2 in Calm     96% 0.01 in 0.00 W/m2 unknown
20:24 57.2 °F 57.2 °F 30.2 in Calm     96% 0.01 in 0.00 W/m2 unknown
20:29 57.2 °F 57.2 °F 30.2 in Calm     96% 0.01 in 0.00 W/m2 unknown
20:34 57.2 °F 57.2 °F 30.2 in Calm     96% 0 in 0.00 W/m2 unknown
20:39 57.2 °F 57.2 °F 30.2 in Calm     96% 0 in 0.00 W/m2 unknown
20:44 57.2 °F 55.4 °F 30.2 in Calm     96% 0 in 0.00 W/m2 unknown
20:49 57.2 °F 55.4 °F 30.2 in Calm     96% 0 in 0.00 W/m2 unknown
20:54 57.2 °F 55.4 °F 30.2 in Calm     96% 0 in 0.00 W/m2 unknown
20:59 57.2 °F 55.4 °F 30.2 in Calm     96% 0 in 0.00 W/m2 unknown
21:04 57.2 °F 55.4 °F 30.2 in Calm     96% 0 in 0.00 W/m2 unknown
21:09 57.2 °F 55.4 °F 30.2 in NE 1.9 mph 3.7 mph 96% 0 in 0.00 W/m2 unknown
21:14 57.2 °F 55.4 °F 30.2 in NE 1.2 mph 3.1 mph 96% 0 in 0.00 W/m2 unknown
21:19 57.2 °F 55.4 °F 30.2 in Calm   1.2 mph 96% 0 in 0.00 W/m2 unknown
21:24 57.2 °F 55.4 °F 30.2 in Calm     96% 0 in 0.00 W/m2 unknown
21:29 57.2 °F 55.4 °F 30.2 in Calm     96% 0 in 0.00 W/m2 unknown
21:34 57.2 °F 55.4 °F 30.2 in Calm     96% 0 in 0.00 W/m2 unknown
21:39 57.2 °F 55.4 °F 30.2 in SE 1.2 mph 2.5 mph 96% 0 in 0.00 W/m2 unknown
21:44 57.2 °F 55.4 °F 30.2 in Calm   1.9 mph 97% 0 in 0.00 W/m2 unknown
21:49 57.2 °F 55.4 °F 30.2 in Calm     97% 0 in 0.00 W/m2 unknown
21:54 57.2 °F 55.4 °F 30.2 in South 1.2 mph 2.5 mph 97% 0 in 0.00 W/m2 unknown
21:59 57.2 °F 55.4 °F 30.2 in SSW 1.2 mph 2.5 mph 97% 0 in 0.00 W/m2 unknown
22:04 57.2 °F 55.4 °F 30.2 in Calm   1.9 mph 97% 0 in 0.00 W/m2 unknown
22:09 57.2 °F 55.4 °F 30.2 in SSW 1.2 mph 2.5 mph 97% 0 in 0.00 W/m2 unknown
22:14 57.2 °F 55.4 °F 30.2 in SSW 1.2 mph 1.9 mph 97% 0 in 0.00 W/m2 unknown
22:19 57.2 °F 55.4 °F 30.2 in Calm   1.2 mph 97% 0 in 0.00 W/m2 unknown
22:24 57.2 °F 55.4 °F 30.2 in Calm     97% 0 in 0.00 W/m2 unknown
22:29 57.2 °F 55.4 °F 30.2 in Calm     97% 0 in 0.00 W/m2 unknown
22:34 57.2 °F 55.4 °F 30.2 in Calm     97% 0 in 0.00 W/m2 unknown
22:39 57.2 °F 55.4 °F 30.2 in Calm     97% 0 in 0.00 W/m2 unknown
22:44 57.2 °F 55.4 °F 30.2 in NNW 1.9 mph 2.5 mph 97% 0 in 0.00 W/m2 unknown
22:49 57.2 °F 55.4 °F 30.2 in NNW 1.2 mph 2.5 mph 97% 0 in 0.00 W/m2 unknown
22:54 57.2 °F 55.4 °F 30.2 in Calm   1.9 mph 97% 0 in 0.00 W/m2 unknown
22:59 57.2 °F 55.4 °F 30.2 in NNW 0.6 mph 1.2 mph 97% 0 in 0.00 W/m2 unknown
23:04 57.2 °F 55.4 °F 30.2 in NNW 1.2 mph 1.2 mph 97% 0 in 0.00 W/m2 unknown
23:09 57.2 °F 55.4 °F 30.2 in NNW 1.2 mph 2.5 mph 97% 0 in 0.00 W/m2 unknown
23:14 57.2 °F 55.4 °F 30.2 in NNW 1.2 mph 2.5 mph 97% 0 in 0.00 W/m2 unknown
23:19 57.2 °F 55.4 °F 30.2 in NNW 0.6 mph 1.2 mph 97% 0 in 0.00 W/m2 unknown
23:24 57.2 °F 55.4 °F 30.2 in Calm   1.2 mph 97% 0 in 0.00 W/m2 unknown
23:29 57.2 °F 55.4 °F 30.2 in Calm   1.2 mph 97% 0 in 0.00 W/m2 unknown
23:34 57.2 °F 55.4 °F 30.2 in Calm     97% 0 in 0.00 W/m2 unknown
23:39 57.2 °F 55.4 °F 30.2 in Calm     97% 0 in 0.00 W/m2 unknown
23:44 57.2 °F 55.4 °F 30.2 in Calm     97% 0 in 0.00 W/m2 unknown
23:49 57.2 °F 55.4 °F 30.2 in Calm     97% 0 in 0.00 W/m2 unknown
23:54 57.2 °F 55.4 °F 30.2 in Calm     97% 0 in 0.00 W/m2 unknown
23:59 57.2 °F 55.4 °F 30.2 in Calm     97% 0 in 0.00 W/m2 unknown
Stazione Meteorologica MeteoMincio Rivalta s/M (MN)
Con i complimenti di Weather Underground - 4 mb



METEO PILLOLE
Il luogo più umido della Terra
Assab, Eritrea
Di pomeriggio, la temperatura di rugiada è in media sopra i 29°C.
Share

Non seguire questo link o sarai bannato dal sito!